createdAt,value
2022-09-10T00:01:29.087Z,17.79
2022-09-10T00:03:56.000Z,17.65
2022-09-10T00:06:26.113Z,17.74
2022-09-10T00:08:53.254Z,17.72
2022-09-10T00:11:20.884Z,17.86
2022-09-10T00:13:47.706Z,17.92
2022-09-10T00:16:16.366Z,17.83
2022-09-10T00:18:43.254Z,17.87
2022-09-10T00:21:13.584Z,17.85
2022-09-10T00:23:41.057Z,17.92
2022-09-10T00:26:19.084Z,17.93
2022-09-10T00:28:46.253Z,17.90
2022-09-10T00:31:14.462Z,18.07
2022-09-10T00:33:41.949Z,18.21
2022-09-10T00:36:21.805Z,18.05
2022-09-10T00:38:50.485Z,18.16
2022-09-10T00:41:19.470Z,18.06
2022-09-10T00:43:59.548Z,18.16
2022-09-10T00:46:47.583Z,18.15
2022-09-10T00:49:22.273Z,18.16
2022-09-10T00:51:52.706Z,18.06
2022-09-10T00:54:23.741Z,18.14
2022-09-10T00:56:54.044Z,18.09
2022-09-10T00:59:22.618Z,18.06
2022-09-10T01:01:49.905Z,18.10
2022-09-10T01:04:16.676Z,18.07
2022-09-10T01:06:45.650Z,18.11
2022-09-10T01:09:14.226Z,18.21
2022-09-10T01:11:54.333Z,18.10
2022-09-10T01:14:29.756Z,18.08
2022-09-10T01:17:25.898Z,18.10
2022-09-10T01:19:52.280Z,18.03
2022-09-10T01:22:31.948Z,18.05
2022-09-10T01:25:46.722Z,17.99
2022-09-10T01:28:27.724Z,17.91
2022-09-10T01:31:01.921Z,17.92
2022-09-10T01:33:57.266Z,18.04
2022-09-10T01:36:28.130Z,17.98
2022-09-10T01:38:55.511Z,18.08
2022-09-10T01:41:27.973Z,18.02
2022-09-10T01:43:54.562Z,18.10
2022-09-10T01:46:59.370Z,17.96
2022-09-10T01:49:31.508Z,17.92
2022-09-10T01:52:06.997Z,17.99
2022-09-10T01:54:40.289Z,17.95
2022-09-10T01:57:09.742Z,17.95
2022-09-10T01:59:51.261Z,17.89
2022-09-10T02:02:26.897Z,17.84
2022-09-10T02:04:55.254Z,17.93
2022-09-10T02:07:24.048Z,17.92
2022-09-10T02:09:51.810Z,17.99
2022-09-10T02:12:20.301Z,17.85
2022-09-10T02:14:55.374Z,17.85
2022-09-10T02:17:25.114Z,17.74
2022-09-10T02:19:53.868Z,17.83
2022-09-10T02:22:23.836Z,17.95
2022-09-10T02:24:51.031Z,17.98
2022-09-10T02:27:17.960Z,17.87
2022-09-10T02:29:44.520Z,17.96
2022-09-10T02:32:10.928Z,17.94
2022-09-10T02:34:37.513Z,17.94
2022-09-10T02:37:04.232Z,18.01
2022-09-10T02:39:31.111Z,18.04
2022-09-10T02:41:58.689Z,18.06
2022-09-10T02:44:27.988Z,17.97
2022-09-10T02:46:55.334Z,17.98
2022-09-10T02:49:21.971Z,17.88
2022-09-10T02:51:50.495Z,17.96
2022-09-10T02:54:19.811Z,18.01
2022-09-10T02:56:48.463Z,17.96
2022-09-10T02:59:14.846Z,18.14
2022-09-10T03:01:41.353Z,18.14
2022-09-10T03:04:08.083Z,18.14
2022-09-10T03:06:34.598Z,18.12
2022-09-10T03:09:02.071Z,18.07
2022-09-10T03:11:28.662Z,18.04
2022-09-10T03:13:55.517Z,18.06
2022-09-10T03:16:21.983Z,18.03
2022-09-10T03:18:48.486Z,18.04
2022-09-10T03:21:18.320Z,17.96
2022-09-10T03:23:46.950Z,17.97
2022-09-10T03:26:14.537Z,17.97
2022-09-10T03:28:43.211Z,17.93
2022-09-10T03:31:10.720Z,17.77
2022-09-10T03:33:37.780Z,17.75
2022-09-10T03:36:05.099Z,17.73
2022-09-10T03:38:32.531Z,17.59
2022-09-10T03:40:59.057Z,17.55
2022-09-10T03:43:25.506Z,17.50
2022-09-10T03:45:52.369Z,17.47
2022-09-10T03:48:20.495Z,17.45
2022-09-10T03:50:48.012Z,17.23
2022-09-10T03:53:15.628Z,17.37
2022-09-10T03:55:47.194Z,17.41
2022-09-10T03:58:14.485Z,17.27
2022-09-10T04:00:41.589Z,17.31
2022-09-10T04:03:08.816Z,17.30
2022-09-10T04:05:38.530Z,17.14
2022-09-10T04:08:07.381Z,17.09
2022-09-10T04:10:33.983Z,17.11
2022-09-10T04:13:00.429Z,17.15
2022-09-10T04:15:26.879Z,16.91
2022-09-10T04:17:54.917Z,17.19
2022-09-10T04:20:25.253Z,17.23
2022-09-10T04:22:52.214Z,17.18
2022-09-10T04:25:19.556Z,17.19
2022-09-10T04:27:46.846Z,17.12
2022-09-10T04:30:13.842Z,17.20
2022-09-10T04:32:40.357Z,17.27
2022-09-10T04:35:07.611Z,17.34
2022-09-10T04:37:34.548Z,17.34
2022-09-10T04:40:01.468Z,17.48
2022-09-10T04:42:28.308Z,17.39
2022-09-10T04:44:54.741Z,17.39
2022-09-10T04:47:21.266Z,17.36
2022-09-10T04:49:47.701Z,17.43
2022-09-10T04:52:16.776Z,17.38
2022-09-10T04:54:43.229Z,17.52
2022-09-10T04:57:09.647Z,17.43
2022-09-10T04:59:36.073Z,17.49
2022-09-10T05:02:03.693Z,17.50
2022-09-10T05:04:30.150Z,17.50
2022-09-10T05:06:57.726Z,17.59
2022-09-10T05:09:24.389Z,17.53
2022-09-10T05:11:50.826Z,17.51
2022-09-10T05:14:17.241Z,17.51
2022-09-10T05:16:46.202Z,17.55
2022-09-10T05:19:17.718Z,17.44
2022-09-10T05:21:48.372Z,17.53
2022-09-10T05:24:15.604Z,17.48
2022-09-10T05:26:42.639Z,17.59
2022-09-10T05:29:09.045Z,17.44
2022-09-10T05:31:35.766Z,17.54
2022-09-10T05:34:02.274Z,17.54
2022-09-10T05:36:31.906Z,17.65
2022-09-10T05:38:59.966Z,17.63
2022-09-10T05:41:28.142Z,17.62
2022-09-10T05:43:54.948Z,17.60
2022-09-10T05:46:22.275Z,17.46
2022-09-10T05:48:49.059Z,17.33
2022-09-10T05:51:16.234Z,17.38
2022-09-10T05:53:43.128Z,17.42
2022-09-10T05:56:09.659Z,17.47
2022-09-10T05:58:36.097Z,17.49
2022-09-10T06:01:02.653Z,17.45
2022-09-10T06:03:29.017Z,17.45
2022-09-10T06:05:55.654Z,17.40
2022-09-10T06:08:22.847Z,17.54
2022-09-10T06:11:00.899Z,17.61
2022-09-10T06:13:27.566Z,17.53
2022-09-10T06:15:54.423Z,17.50
2022-09-10T06:18:21.111Z,17.68
2022-09-10T06:20:50.545Z,17.73
2022-09-10T06:23:18.017Z,17.67
2022-09-10T06:25:44.689Z,17.78
2022-09-10T06:28:12.582Z,17.75
2022-09-10T06:30:39.407Z,17.86
2022-09-10T06:33:05.900Z,17.76
2022-09-10T06:35:33.254Z,17.65
2022-09-10T06:37:59.646Z,17.71
2022-09-10T06:40:29.615Z,17.67
2022-09-10T06:42:56.140Z,17.77
2022-09-10T06:45:22.577Z,17.71
2022-09-10T06:48:37.001Z,17.63
2022-09-10T06:50:35.356Z,17.71
2022-09-10T06:53:02.725Z,17.85
2022-09-10T06:55:29.327Z,17.76
2022-09-10T06:57:55.701Z,17.85
2022-09-10T07:00:22.195Z,17.89
2022-09-10T07:02:50.567Z,17.88
2022-09-10T07:05:16.981Z,17.92
2022-09-10T07:07:43.679Z,17.87
2022-09-10T07:10:10.143Z,17.92
2022-09-10T07:12:36.578Z,18.00
2022-09-10T07:15:03.050Z,17.94
2022-09-10T07:17:31.990Z,18.08
2022-09-10T07:19:58.565Z,18.11
2022-09-10T07:22:25.119Z,18.18
2022-09-10T07:24:51.604Z,18.05
2022-09-10T07:27:18.286Z,17.99
2022-09-10T07:29:44.710Z,18.15
2022-09-10T07:32:13.505Z,18.31
2022-09-10T07:34:40.279Z,18.30
2022-09-10T07:37:07.521Z,18.24
2022-09-10T07:39:33.998Z,18.61
2022-09-10T07:42:00.498Z,18.64
2022-09-10T07:44:27.199Z,18.57
2022-09-10T07:46:53.855Z,18.51
2022-09-10T07:49:20.714Z,18.42
2022-09-10T07:51:47.299Z,18.57
2022-09-10T07:54:15.874Z,18.63
2022-09-10T07:56:42.480Z,18.72
2022-09-10T07:59:09.029Z,18.51
2022-09-10T08:01:35.505Z,18.83
2022-09-10T08:04:04.212Z,18.93
2022-09-10T08:06:32.231Z,18.91
2022-09-10T08:08:59.999Z,18.85
2022-09-10T08:11:26.489Z,18.89
2022-09-10T08:13:54.049Z,18.99
2022-09-10T08:16:26.815Z,19.12
2022-09-10T08:18:58.063Z,18.96
2022-09-10T08:21:25.751Z,18.96
2022-09-10T08:23:54.357Z,18.99
2022-09-10T08:26:23.564Z,19.10
2022-09-10T08:28:51.481Z,19.14
2022-09-10T08:31:18.088Z,19.13
2022-09-10T08:33:50.479Z,19.30
2022-09-10T08:36:18.432Z,19.30
2022-09-10T08:38:45.956Z,19.32
2022-09-10T08:41:35.690Z,19.37
2022-09-10T08:44:27.678Z,19.34
2022-09-10T08:46:55.569Z,19.71
2022-09-10T08:49:45.871Z,19.68
2022-09-10T08:52:29.683Z,19.94
2022-09-10T08:55:04.343Z,19.79
2022-09-10T08:57:36.761Z,19.85
2022-09-10T09:00:04.803Z,19.75
2022-09-10T09:03:08.910Z,19.78
2022-09-10T09:05:45.937Z,19.93
2022-09-10T09:08:15.806Z,19.84
2022-09-10T09:10:50.861Z,19.88
2022-09-10T09:13:37.962Z,20.12
2022-09-10T09:16:35.481Z,20.10
2022-09-10T09:19:23.633Z,20.36
2022-09-10T09:21:55.418Z,20.29
2022-09-10T09:24:23.582Z,20.23
2022-09-10T09:26:50.632Z,20.19
2022-09-10T09:29:35.997Z,20.43
2022-09-10T09:32:06.276Z,20.49
2022-09-10T09:34:43.887Z,20.50
2022-09-10T09:37:24.622Z,20.71
2022-09-10T09:40:15.210Z,20.77
2022-09-10T09:42:50.220Z,20.89
2022-09-10T09:45:37.716Z,20.70
2022-09-10T09:48:06.620Z,20.56
2022-09-10T09:50:36.430Z,20.75
2022-09-10T09:53:03.070Z,20.88
2022-09-10T09:55:35.743Z,20.87
2022-09-10T09:58:26.854Z,21.09
2022-09-10T10:00:55.872Z,20.91
2022-09-10T10:03:26.460Z,20.82
2022-09-10T10:06:03.818Z,20.87
2022-09-10T10:08:34.063Z,20.81
2022-09-10T10:11:01.281Z,20.81
2022-09-10T10:13:51.393Z,20.74
2022-09-10T10:16:35.717Z,20.69
2022-09-10T10:19:02.919Z,20.63
2022-09-10T10:21:31.665Z,20.94
2022-09-10T10:23:58.270Z,21.04
2022-09-10T10:26:32.071Z,20.90
2022-09-10T10:29:06.205Z,21.17
2022-09-10T10:31:40.180Z,21.24
2022-09-10T10:34:32.941Z,21.54
2022-09-10T10:37:02.025Z,21.72
2022-09-10T10:39:40.533Z,21.74
2022-09-10T10:42:13.874Z,21.90
2022-09-10T10:45:11.287Z,21.97
2022-09-10T10:47:56.090Z,21.92
2022-09-10T10:50:37.912Z,21.90
2022-09-10T10:53:16.477Z,21.97
2022-09-10T10:56:07.994Z,21.83
2022-09-10T10:58:44.312Z,22.06
2022-09-10T11:01:23.651Z,21.83
2022-09-10T11:03:51.384Z,21.56
2022-09-10T11:06:24.568Z,21.60
2022-09-10T11:08:55.281Z,21.60
2022-09-10T11:11:31.731Z,21.61
2022-09-10T11:14:06.378Z,21.50
2022-09-10T11:16:46.763Z,21.64
2022-09-10T11:19:19.147Z,21.82
2022-09-10T11:21:54.227Z,21.61
2022-09-10T11:24:28.162Z,21.62
2022-09-10T11:27:09.069Z,21.40
2022-09-10T11:29:44.508Z,21.69
2022-09-10T11:32:32.250Z,21.83
2022-09-10T11:35:12.974Z,21.95
2022-09-10T11:38:11.269Z,21.81
2022-09-10T11:40:47.045Z,21.54
2022-09-10T11:43:37.275Z,21.59
2022-09-10T11:46:12.365Z,21.54
2022-09-10T11:49:17.900Z,21.44
2022-09-10T11:51:45.234Z,21.22
2022-09-10T11:54:16.507Z,21.35
2022-09-10T11:57:01.266Z,21.52
2022-09-10T11:59:45.693Z,21.54
2022-09-10T12:02:40.884Z,21.51
2022-09-10T12:05:10.771Z,21.60
2022-09-10T12:07:53.279Z,21.65
2022-09-10T12:10:47.280Z,21.23
2022-09-10T12:13:15.385Z,21.39
2022-09-10T12:15:53.924Z,21.42
2022-09-10T12:18:28.181Z,21.44
2022-09-10T12:21:05.111Z,21.51
2022-09-10T12:23:43.111Z,21.60
2022-09-10T12:26:21.496Z,21.59
2022-09-10T12:28:57.332Z,21.70
2022-09-10T12:31:26.743Z,21.62
2022-09-10T12:33:54.419Z,21.72
2022-09-10T12:37:09.359Z,21.55
2022-09-10T12:39:39.098Z,21.53
2022-09-10T12:42:31.268Z,21.41
2022-09-10T12:44:59.743Z,21.51
2022-09-10T12:47:44.071Z,21.63
2022-09-10T12:50:27.208Z,21.37
2022-09-10T12:53:25.191Z,21.61
2022-09-10T12:56:15.763Z,21.50
2022-09-10T12:59:04.712Z,21.60
2022-09-10T13:01:53.268Z,21.54
2022-09-10T13:04:29.752Z,21.49
2022-09-10T13:07:05.764Z,21.52
2022-09-10T13:09:43.147Z,21.43
2022-09-10T13:12:42.025Z,21.45
2022-09-10T13:15:36.382Z,21.44
2022-09-10T13:18:09.525Z,21.51
2022-09-10T13:20:37.421Z,21.76
2022-09-10T13:23:21.317Z,21.68
2022-09-10T13:25:51.355Z,21.66
2022-09-10T13:28:31.496Z,21.52
2022-09-10T13:31:14.490Z,21.50
2022-09-10T13:33:54.528Z,21.86
2022-09-10T13:36:46.671Z,21.86
2022-09-10T13:39:48.324Z,21.81
2022-09-10T13:43:01.696Z,21.76
2022-09-10T13:45:37.629Z,21.70
2022-09-10T13:48:25.765Z,21.66
2022-09-10T13:51:26.031Z,21.31
2022-09-10T13:53:54.884Z,21.32
2022-09-10T13:56:26.807Z,21.21
2022-09-10T13:59:05.086Z,20.97
2022-09-10T14:01:52.988Z,21.16
2022-09-10T14:04:27.843Z,21.31
2022-09-10T14:07:04.878Z,20.91
2022-09-10T14:09:51.476Z,20.89
2022-09-10T14:12:47.653Z,20.69
2022-09-10T14:19:02.941Z,20.72
2022-09-10T14:22:04.549Z,20.82
2022-09-10T14:25:09.288Z,20.67
2022-09-10T14:27:44.718Z,20.43
2022-09-10T14:34:17.315Z,20.72
2022-09-10T14:37:09.019Z,20.48
2022-09-10T14:40:09.750Z,20.55
2022-09-10T14:56:08.204Z,20.25
2022-09-10T14:58:53.828Z,20.18
2022-09-10T15:01:39.350Z,20.35
2022-09-10T15:04:35.737Z,20.67
2022-09-10T15:07:12.990Z,20.42
2022-09-10T15:10:05.863Z,20.84
2022-09-10T15:13:06.328Z,21.02
2022-09-10T15:15:42.602Z,21.03
2022-09-10T15:18:22.001Z,20.77
2022-09-10T15:21:28.691Z,20.97
2022-09-10T15:24:14.610Z,20.96
2022-09-10T15:26:46.256Z,20.86
2022-09-10T15:29:13.998Z,20.88
2022-09-10T15:31:41.095Z,20.79
2022-09-10T15:34:08.691Z,20.85
2022-09-10T15:36:37.042Z,20.97
2022-09-10T15:39:04.573Z,20.91
2022-09-10T15:41:31.238Z,20.81
2022-09-10T15:43:58.651Z,20.89
2022-09-10T15:46:25.277Z,21.08
2022-09-10T15:48:52.976Z,21.13
2022-09-10T15:51:21.726Z,21.16
2022-09-10T15:53:49.249Z,20.98
2022-09-10T15:56:16.430Z,20.96
2022-09-10T15:58:51.517Z,21.01
2022-09-10T16:01:18.523Z,21.01
2022-09-10T16:03:50.600Z,20.84
2022-09-10T16:06:20.894Z,20.98
2022-09-10T16:08:52.950Z,21.01
2022-09-10T16:11:20.147Z,20.90
2022-09-10T16:13:46.837Z,20.92
2022-09-10T16:16:19.138Z,20.89
2022-09-10T16:18:46.189Z,20.93
2022-09-10T16:21:15.903Z,20.88
2022-09-10T16:23:43.079Z,20.86
2022-09-10T16:26:15.701Z,20.82
2022-09-10T16:28:48.139Z,20.87
2022-09-10T16:31:18.786Z,20.88
2022-09-10T16:33:45.854Z,20.82
2022-09-10T16:36:15.099Z,20.94
2022-09-10T16:38:43.498Z,20.93
2022-09-10T16:41:14.928Z,20.84
2022-09-10T16:43:42.510Z,21.02
2022-09-10T16:46:11.629Z,21.05
2022-09-10T16:48:40.859Z,21.08
2022-09-10T16:51:12.969Z,20.94
2022-09-10T16:53:40.915Z,20.87
2022-09-10T16:56:10.048Z,21.00
2022-09-10T16:58:36.950Z,21.04
2022-09-10T17:01:06.019Z,21.00
2022-09-10T17:03:32.590Z,20.99
2022-09-10T17:05:59.657Z,20.90
2022-09-10T17:08:27.472Z,20.32
2022-09-10T17:10:54.086Z,20.22
2022-09-10T17:13:20.483Z,20.49
2022-09-10T17:15:47.412Z,20.44
2022-09-10T17:18:14.305Z,20.46
2022-09-10T17:20:42.254Z,20.38
2022-09-10T17:23:10.534Z,20.48
2022-09-10T17:25:37.434Z,20.20
2022-09-10T17:28:04.636Z,20.30
2022-09-10T17:30:31.613Z,20.22
2022-09-10T17:32:59.621Z,20.18
2022-09-10T17:35:26.461Z,20.08
2022-09-10T17:37:52.945Z,19.74
2022-09-10T17:40:20.739Z,19.83
2022-09-10T17:42:49.108Z,19.96
2022-09-10T17:45:16.970Z,19.62
2022-09-10T17:47:44.265Z,19.87
2022-09-10T17:50:10.736Z,19.63
2022-09-10T17:52:38.226Z,19.57
2022-09-10T17:55:05.001Z,19.80
2022-09-10T17:57:31.488Z,20.00
2022-09-10T17:59:57.903Z,20.11
2022-09-10T18:02:24.469Z,20.04
2022-09-10T18:04:50.996Z,20.18
2022-09-10T18:07:18.132Z,20.18
2022-09-10T18:09:44.582Z,20.21
2022-09-10T18:12:11.095Z,20.02
2022-09-10T18:14:38.393Z,19.96
2022-09-10T18:17:04.806Z,19.73
2022-09-10T18:19:33.097Z,19.89
2022-09-10T18:22:01.273Z,19.90
2022-09-10T18:24:28.367Z,20.09
2022-09-10T18:26:55.003Z,20.10
2022-09-10T18:29:24.589Z,20.14
2022-09-10T18:31:54.160Z,20.09
2022-09-10T18:34:24.305Z,20.07
2022-09-10T18:36:57.551Z,20.11
2022-09-10T18:39:26.222Z,19.98
2022-09-10T18:41:52.860Z,19.97
2022-09-10T18:44:22.921Z,19.96
2022-09-10T18:46:50.582Z,19.98
2022-09-10T18:49:21.490Z,19.98
2022-09-10T18:51:48.547Z,19.98
2022-09-10T18:54:16.700Z,20.01
2022-09-10T18:56:44.930Z,19.85
2022-09-10T18:59:15.157Z,19.93
2022-09-10T19:01:43.807Z,19.98
2022-09-10T19:04:12.829Z,19.88
2022-09-10T19:06:42.369Z,19.83
2022-09-10T19:09:12.982Z,19.74
2022-09-10T19:11:42.596Z,19.71
2022-09-10T19:14:36.580Z,19.75
2022-09-10T19:17:03.669Z,19.76
2022-09-10T19:19:32.658Z,19.71
2022-09-10T19:22:03.291Z,19.70
2022-09-10T19:24:53.551Z,19.73
2022-09-10T19:27:17.274Z,19.72
2022-09-10T19:29:44.374Z,19.74
2022-09-10T19:32:11.266Z,19.76
2022-09-10T19:34:37.810Z,19.60
2022-09-10T19:37:04.330Z,19.60
2022-09-10T19:39:30.691Z,19.72
2022-09-10T19:41:57.106Z,19.59
2022-09-10T19:44:23.525Z,19.60
2022-09-10T19:46:50.167Z,19.66
2022-09-10T19:49:16.824Z,19.62
2022-09-10T19:51:43.821Z,19.63
2022-09-10T19:54:11.938Z,19.64
2022-09-10T19:56:41.207Z,19.63
2022-09-10T19:59:10.969Z,19.59
2022-09-10T20:01:40.343Z,19.63
2022-09-10T20:04:08.587Z,19.58
2022-09-10T20:06:35.844Z,19.57
2022-09-10T20:09:04.970Z,19.53
2022-09-10T20:11:32.987Z,19.50
2022-09-10T20:14:13.554Z,19.51
2022-09-10T20:16:42.846Z,19.44
2022-09-10T20:19:11.608Z,19.43
2022-09-10T20:21:38.017Z,19.43
2022-09-10T20:24:07.067Z,19.37
2022-09-10T20:26:37.974Z,19.33
2022-09-10T20:29:07.518Z,19.23
2022-09-10T20:31:35.500Z,19.17
2022-09-10T20:34:06.435Z,19.22
2022-09-10T20:36:34.901Z,19.27
2022-09-10T20:39:02.214Z,19.28
2022-09-10T20:41:31.585Z,19.23
2022-09-10T20:43:59.775Z,19.21
2022-09-10T20:46:28.612Z,19.11
2022-09-10T20:49:02.571Z,19.06
2022-09-10T20:51:38.634Z,19.07
2022-09-10T20:54:07.377Z,19.12
2022-09-10T20:56:33.852Z,19.02
2022-09-10T20:59:01.862Z,18.99
2022-09-10T21:01:33.587Z,18.93
2022-09-10T21:04:01.279Z,18.99
2022-09-10T21:06:30.041Z,19.04
2022-09-10T21:08:56.877Z,19.04
2022-09-10T21:11:26.550Z,19.02
2022-09-10T21:13:55.441Z,18.92
2022-09-10T21:16:23.591Z,18.80
2022-09-10T21:18:54.808Z,18.74
2022-09-10T21:21:25.235Z,18.73
2022-09-10T21:23:53.864Z,18.67
2022-09-10T21:26:23.231Z,18.71
2022-09-10T21:28:52.780Z,18.55
2022-09-10T21:31:19.130Z,18.56
2022-09-10T21:33:46.103Z,18.55
2022-09-10T21:36:16.056Z,18.43
2022-09-10T21:38:47.205Z,18.50
2022-09-10T21:41:15.641Z,18.42
2022-09-10T21:43:46.397Z,18.39
2022-09-10T21:46:13.835Z,18.41
2022-09-10T21:48:42.315Z,18.48
2022-09-10T21:51:13.280Z,18.50
2022-09-10T21:53:41.458Z,18.25
2022-09-10T21:56:08.174Z,18.38
2022-09-10T21:58:36.515Z,18.36
2022-09-10T22:01:12.052Z,18.46
2022-09-10T22:03:39.259Z,18.49
2022-09-10T22:06:07.748Z,18.52
2022-09-10T22:08:35.114Z,18.58
2022-09-10T22:11:14.217Z,18.58
2022-09-10T22:13:45.365Z,18.55
2022-09-10T22:16:12.721Z,18.50
2022-09-10T22:18:40.946Z,18.52
2022-09-10T22:21:08.749Z,18.48
2022-09-10T22:23:38.052Z,18.44
2022-09-10T22:26:04.494Z,18.47
2022-09-10T22:28:34.917Z,18.30
2022-09-10T22:31:07.068Z,18.16
2022-09-10T22:33:34.442Z,18.13
2022-09-10T22:36:23.653Z,18.24
2022-09-10T22:38:52.677Z,18.27
2022-09-10T22:41:19.807Z,18.34
2022-09-10T22:43:46.338Z,18.10
2022-09-10T22:46:14.004Z,18.15
2022-09-10T22:48:42.567Z,18.25
2022-09-10T22:51:37.878Z,18.26
2022-09-10T22:54:05.113Z,18.24
2022-09-10T22:56:31.621Z,18.22
2022-09-10T22:58:59.169Z,18.08
2022-09-10T23:01:29.086Z,18.12
2022-09-10T23:04:00.511Z,18.12
2022-09-10T23:06:29.433Z,17.93
2022-09-10T23:09:01.741Z,17.91
2022-09-10T23:11:30.424Z,18.06
2022-09-10T23:14:02.077Z,18.08
2022-09-10T23:16:31.937Z,18.01
2022-09-10T23:19:00.498Z,18.00
2022-09-10T23:21:29.130Z,18.01
2022-09-10T23:23:58.525Z,18.01
2022-09-10T23:26:25.405Z,18.05
2022-09-10T23:28:52.571Z,17.85
2022-09-10T23:31:25.188Z,17.92
2022-09-10T23:34:20.683Z,18.03
2022-09-10T23:36:48.850Z,17.89
2022-09-10T23:39:18.089Z,17.93
2022-09-10T23:41:44.623Z,17.89
2022-09-10T23:44:11.136Z,17.87
2022-09-10T23:46:37.933Z,17.82
2022-09-10T23:49:05.500Z,17.84
2022-09-10T23:51:31.935Z,17.67
2022-09-10T23:53:59.402Z,17.58
2022-09-10T23:56:28.259Z,17.54
2022-09-10T23:58:56.161Z,17.68
